Time;durP1;ratioP1;P1;durP2;ratioP2;P2;SDS_P1;SDS_P2;PMS_P1;PMS_P2;Temp;Humidity;BMP_temperature;BMP_pressure;BME280_temperature;BME280_humidity;BME280_pressure;Samples;Min_cycle;Max_cycle;Signal;HPM_P1;HPM_P2
2022/11/10 00:00:41;;;;;;;13.70;7.72;;;;;;;13.94;100.00;100552.81;4989982;28;20659;-64
2022/11/10 00:03:08;;;;;;;15.88;7.72;;;;;;;13.93;100.00;100551.97;4989734;28;20022;-63
2022/11/10 00:05:36;;;;;;;15.40;8.30;;;;;;;13.90;100.00;100556.56;4988292;28;20049;-64
2022/11/10 00:08:04;;;;;;;11.25;6.50;;;;;;;13.87;100.00;100564.69;4988885;28;20705;-64
2022/11/10 00:10:31;;;;;;;10.98;6.70;;;;;;;13.80;100.00;100557.81;4988574;28;20055;-64
2022/11/10 00:13:02;;;;;;;13.05;7.55;;;;;;;13.79;100.00;100558.75;4988781;28;20081;-63
2022/11/10 00:18:12;;;;;;;12.38;7.63;;;;;;;13.79;100.00;100559.59;4992243;28;20081;-63
2022/11/10 00:20:38;;;;;;;11.18;7.07;;;;;;;13.87;100.00;100570.03;4993046;28;20053;-63
2022/11/10 00:23:03;;;;;;;11.68;6.55;;;;;;;13.89;100.00;100569.03;4992803;28;20034;-62
2022/11/10 00:25:30;;;;;;;12.05;6.93;;;;;;;13.87;100.00;100570.03;4992438;28;20034;-63
2022/11/10 00:27:57;;;;;;;16.23;8.32;;;;;;;13.90;100.00;100580.63;4993077;28;20401;-64
2022/11/10 00:30:23;;;;;;;10.57;5.85;;;;;;;13.93;100.00;100581.38;4992654;28;20393;-64
2022/11/10 00:32:48;;;;;;;14.55;6.93;;;;;;;13.94;100.00;100582.22;4990672;28;20033;-64
2022/11/10 00:35:14;;;;;;;10.13;5.78;;;;;;;13.96;100.00;100581.25;4992722;28;20039;-63
2022/11/10 00:37:39;;;;;;;11.25;6.00;;;;;;;13.93;100.00;100585.84;4992782;28;20486;-64
2022/11/10 00:40:05;;;;;;;9.23;5.85;;;;;;;13.89;100.00;100589.53;4992740;28;20026;-63
2022/11/10 00:42:30;;;;;;;13.20;5.85;;;;;;;13.87;100.00;100592.28;4992115;28;20474;-64
2022/11/10 00:44:56;;;;;;;11.85;6.70;;;;;;;13.84;100.00;100591.53;4992523;28;20022;-64
2022/11/10 00:47:21;;;;;;;12.10;5.63;;;;;;;13.81;100.00;100591.63;4993343;28;20040;-63
2022/11/10 00:49:47;;;;;;;10.52;5.00;;;;;;;13.78;100.00;100591.75;4992921;28;20797;-64
2022/11/10 00:52:12;;;;;;;9.30;5.03;;;;;;;13.77;100.00;100600.72;4995005;28;20053;-63
2022/11/10 00:54:37;;;;;;;10.90;5.70;;;;;;;13.79;100.00;100604.22;4992527;28;20037;-63
2022/11/10 00:57:03;;;;;;;9.48;5.53;;;;;;;13.79;100.00;100610.41;4992225;28;20210;-63
2022/11/10 00:59:28;;;;;;;15.65;5.82;;;;;;;13.79;100.00;100610.41;4991992;28;20068;-64
2022/11/10 01:01:54;;;;;;;11.27;5.20;;;;;;;13.80;100.00;100612.19;4995455;28;20118;-64
2022/11/10 01:04:19;;;;;;;11.10;6.07;;;;;;;13.83;100.00;100621.88;4999165;28;20394;-63
2022/11/10 01:06:46;;;;;;;9.98;5.22;;;;;;;13.85;100.00;100625.38;4991903;28;20027;-63
2022/11/10 01:09:12;;;;;;;9.63;5.35;;;;;;;13.82;100.00;100618.31;4991605;28;20049;-64
2022/11/10 01:11:37;;;;;;;11.20;5.00;;;;;;;13.90;100.00;100632.31;4992044;28;20458;-64
2022/11/10 01:14:02;;;;;;;10.48;5.20;;;;;;;13.89;100.00;100637.69;4992093;28;20034;-64
2022/11/10 01:16:30;;;;;;;11.75;5.80;;;;;;;13.90;100.00;100635.00;4987789;28;20118;-64
2022/11/10 01:18:58;;;;;;;10.65;6.43;;;;;;;13.90;100.00;100640.34;4992050;28;20113;-64
2022/11/10 01:21:24;;;;;;;11.27;6.18;;;;;;;13.84;100.00;100643.22;4993251;28;20034;-64
2022/11/10 01:23:50;;;;;;;10.98;5.97;;;;;;;13.80;100.00;100649.63;4993441;28;20133;-64
2022/11/10 01:26:20;;;;;;;10.10;5.28;;;;;;;13.74;100.00;100646.28;4992985;28;20089;-66
2022/11/10 01:28:46;;;;;;;9.30;5.65;;;;;;;13.65;100.00;100646.59;4991119;28;20029;-64
2022/11/10 01:31:16;;;;;;;9.30;5.25;;;;;;;13.44;100.00;100624.19;4992839;28;20038;-63
2022/11/10 01:33:41;;;;;;;11.68;4.95;;;;;;;13.62;100.00;100654.72;4992778;28;20484;-63
2022/11/10 01:36:08;;;;;;;10.30;5.13;;;;;;;13.54;100.00;100651.44;4992412;28;20018;-63
2022/11/10 01:38:36;;;;;;;13.05;4.85;;;;;;;13.64;100.00;100658.22;4992533;28;20033;-63
2022/11/10 01:41:03;;;;;;;7.95;4.53;;;;;;;13.65;100.00;100665.31;4997024;28;20030;-63
2022/11/10 01:43:28;;;;;;;9.82;4.32;;;;;;;13.64;100.00;100669.78;4992745;28;20029;-63
2022/11/10 01:46:04;;;;;;;8.85;4.15;;;;;;;13.60;100.00;100675.28;4992506;28;20046;-63
2022/11/10 01:48:35;;;;;;;8.20;4.70;;;;;;;13.53;100.00;100676.41;4995530;28;20053;-62
2022/11/10 01:51:19;;;;;;;11.23;5.25;;;;;;;13.46;100.00;100674.91;4990426;28;20475;-63
2022/11/10 01:53:49;;;;;;;10.13;4.32;;;;;;;13.42;100.00;100675.91;4992934;28;20534;-64
2022/11/10 01:56:15;;;;;;;9.73;4.55;;;;;;;13.38;100.00;100680.47;4992941;28;20038;-62
2022/11/10 01:58:47;;;;;;;8.15;4.55;;;;;;;13.36;100.00;100676.97;4992649;28;20029;-63
2022/11/10 02:01:12;;;;;;;7.78;4.28;;;;;;;13.32;100.00;100679.81;4992284;28;20125;-62
2022/11/10 02:03:41;;;;;;;7.50;4.35;;;;;;;13.28;100.00;100684.38;4992319;28;20025;-62
2022/11/10 02:06:07;;;;;;;10.00;4.72;;;;;;;13.27;100.00;100684.44;4992655;28;20037;-63
2022/11/10 02:08:34;;;;;;;9.00;4.38;;;;;;;13.20;100.00;100687.31;4992372;28;20113;-63
2022/11/10 02:10:59;;;;;;;10.27;4.57;;;;;;;13.22;100.00;100689.94;4992182;28;20054;-63
2022/11/10 02:13:25;;;;;;;10.27;4.97;;;;;;;13.23;100.00;100693.47;4992569;28;20528;-62
2022/11/10 02:15:50;;;;;;;7.05;4.40;;;;;;;13.23;100.00;100695.22;4992401;28;20457;-64
2022/11/10 02:18:15;;;;;;;14.43;5.20;;;;;;;13.25;100.00;100695.16;4992353;28;20073;-63
2022/11/10 02:20:45;;;;;;;10.93;5.03;;;;;;;13.26;100.00;100693.38;4992496;28;20037;-62
2022/11/10 02:23:33;;;;;;;14.75;4.38;;;;;;;13.38;100.00;100706.34;4979480;28;20496;-63
2022/11/10 02:26:04;;;;;;;12.45;4.75;;;;;;;13.44;100.00;100708.81;4972842;28;20109;-62
2022/11/10 02:28:34;;;;;;;8.32;5.28;;;;;;;13.47;100.00;100709.59;4972736;28;20557;-62
2022/11/10 02:31:00;;;;;;;9.10;4.25;;;;;;;13.50;100.00;100713.94;4973033;28;20039;-62
2022/11/10 02:33:25;;;;;;;10.38;5.38;;;;;;;13.53;100.00;100721.84;4972880;28;20078;-62
2022/11/10 02:35:51;;;;;;;8.90;4.13;;;;;;;13.55;100.00;100723.56;4972758;28;20029;-62
2022/11/10 02:38:16;;;;;;;7.13;3.72;;;;;;;13.52;100.00;100717.44;4985820;28;20054;-62
2022/11/10 02:40:42;;;;;;;10.25;3.50;;;;;;;13.57;100.00;100719.03;4992064;28;20063;-62
2022/11/10 02:43:11;;;;;;;9.45;3.75;;;;;;;13.52;100.00;100714.78;4992183;28;20084;-63
2022/11/10 02:45:45;;;;;;;9.48;4.20;;;;;;;13.53;100.00;100708.47;4991937;28;20026;-63
2022/11/10 02:48:13;;;;;;;6.53;3.03;;;;;;;13.54;100.00;100705.75;4991887;28;20040;-63
2022/11/10 02:50:39;;;;;;;12.98;3.85;;;;;;;13.57;100.00;100707.47;4991829;28;20746;-64
2022/11/10 02:53:05;;;;;;;7.35;3.05;;;;;;;13.60;100.00;100710.03;4991764;28;20084;-64
2022/11/10 02:55:31;;;;;;;7.63;3.33;;;;;;;13.61;100.00;100709.09;4993591;28;20065;-64
2022/11/10 02:57:57;;;;;;;6.85;3.78;;;;;;;13.62;100.00;100718.88;5011091;28;20034;-64
2022/11/10 03:00:23;;;;;;;7.63;3.30;;;;;;;13.62;100.00;100717.09;5008406;28;20029;-65
2022/11/10 03:02:48;;;;;;;6.90;2.45;;;;;;;13.60;100.00;100720.72;5010173;28;20486;-64
2022/11/10 03:05:14;;;;;;;5.57;2.83;;;;;;;13.57;100.00;100718.16;4991808;28;20033;-64
2022/11/10 03:07:39;;;;;;;6.47;2.60;;;;;;;13.56;100.00;100740.47;4991747;28;20023;-64
2022/11/10 03:10:05;;;;;;;6.07;2.38;;;;;;;13.57;100.00;100739.53;4991672;28;20050;-65
2022/11/10 03:12:31;;;;;;;7.57;2.78;;;;;;;13.56;100.00;100740.47;4991403;28;20122;-64
2022/11/10 03:14:56;;;;;;;6.60;2.67;;;;;;;13.56;100.00;100748.50;4990746;28;20113;-65
2022/11/10 03:17:22;;;;;;;10.00;2.42;;;;;;;13.56;100.00;100746.69;4990596;28;20030;-65
2022/11/10 03:19:48;;;;;;;8.63;2.83;;;;;;;13.58;100.00;100754.66;4990051;28;20080;-64
2022/11/10 03:22:13;;;;;;;4.88;2.90;;;;;;;13.56;100.00;100756.53;4990138;28;20031;-65
2022/11/10 03:24:39;;;;;;;6.45;2.83;;;;;;;13.49;100.00;100758.53;4990093;28;20041;-65
2022/11/10 03:27:04;;;;;;;7.13;2.47;;;;;;;13.43;100.00;100763.16;4990217;28;20027;-64
2022/11/10 03:29:29;;;;;;;6.32;2.90;;;;;;;13.34;100.00;100766.13;4990662;28;20041;-64
2022/11/10 03:31:55;;;;;;;5.95;3.13;;;;;;;13.26;100.00;100769.06;4990827;28;20022;-64
2022/11/10 03:34:21;;;;;;;6.65;3.00;;;;;;;13.18;100.00;100774.63;4991111;28;20030;-64
2022/11/10 03:36:47;;;;;;;5.90;3.00;;;;;;;13.09;100.00;100772.25;4991665;28;20081;-64
2022/11/10 03:39:12;;;;;;;4.15;2.60;;;;;;;12.96;100.00;100773.50;4994712;28;20036;-64
2022/11/10 03:41:37;;;;;;;6.40;2.97;;;;;;;12.84;100.00;100768.53;5011189;28;20033;-65
2022/11/10 03:44:03;;;;;;;6.90;2.22;;;;;;;12.76;100.00;100773.25;5010982;28;20457;-64
2022/11/10 03:46:29;;;;;;;5.38;2.33;;;;;;;12.69;100.00;100782.34;5010957;28;20073;-64
2022/11/10 03:48:54;;;;;;;7.53;2.95;;;;;;;12.61;100.00;100773.69;5011530;28;20112;-65
2022/11/10 03:51:20;;;;;;;7.07;2.90;;;;;;;12.59;100.00;100790.63;5014792;28;20026;-64
2022/11/10 03:53:46;;;;;;;5.28;2.60;;;;;;;12.58;100.00;100795.13;5004396;28;20035;-64
2022/11/10 03:56:11;;;;;;;4.68;2.83;;;;;;;12.55;100.00;100794.34;4995320;28;20089;-64
2022/11/10 03:58:37;;;;;;;6.35;3.10;;;;;;;12.52;100.00;100789.94;5000525;28;20040;-64
2022/11/10 04:01:03;;;;;;;5.43;2.75;;;;;;;12.50;100.00;100796.25;5014776;28;20042;-64
2022/11/10 04:03:28;;;;;;;5.03;2.95;;;;;;;12.42;100.00;100784.94;5007779;28;20054;-64
2022/11/10 04:16:49;;;;;;;9.02;2.97;;;;;;;12.29;100.00;100802.19;4993952;28;20096;-64
2022/11/10 04:19:14;;;;;;;9.07;2.78;;;;;;;12.23;100.00;100808.56;4993911;28;20034;-64
2022/11/10 04:21:40;;;;;;;5.25;2.80;;;;;;;12.10;100.00;100819.56;4993874;28;20033;-64
2022/11/10 04:24:06;;;;;;;7.32;3.05;;;;;;;12.03;100.00;100829.53;4994602;28;20088;-63
2022/11/10 04:26:32;;;;;;;9.07;4.18;;;;;;;11.97;100.00;100836.81;4994430;28;20034;-64
2022/11/10 04:29:03;;;;;;;5.70;2.80;;;;;;;11.85;100.00;100843.31;4994580;28;20056;-65
2022/11/10 04:31:31;;;;;;;6.30;3.60;;;;;;;11.75;100.00;100844.44;4994405;28;20026;-64
2022/11/10 04:33:57;;;;;;;5.50;3.17;;;;;;;11.64;100.00;100844.72;4994656;28;20034;-64
2022/11/10 04:36:26;;;;;;;5.25;3.15;;;;;;;11.60;100.00;100839.44;4994563;28;20352;-64
2022/11/10 04:38:54;;;;;;;8.75;4.15;;;;;;;11.55;100.00;100838.69;4994066;28;20672;-64
2022/11/10 04:41:20;;;;;;;10.52;4.15;;;;;;;11.53;100.00;100848.53;4994251;28;20033;-64
2022/11/10 04:43:45;;;;;;;8.45;4.18;;;;;;;11.48;100.00;100858.41;4994063;28;20034;-64
2022/11/10 04:46:34;;;;;;;11.32;4.75;;;;;;;11.48;100.00;100863.72;4994161;28;20160;-64
2022/11/10 04:49:00;;;;;;;10.82;4.85;;;;;;;11.48;100.00;100855.75;4994153;28;20422;-64
2022/11/10 04:51:31;;;;;;;12.40;5.90;;;;;;;11.49;100.00;100861.03;4994036;28;20036;-64
2022/11/10 04:53:57;;;;;;;8.70;5.22;;;;;;;11.46;100.00;100861.09;4994066;28;20034;-64
2022/11/10 04:56:24;;;;;;;9.10;5.53;;;;;;;11.42;100.00;100874.50;4993999;28;20105;-64
2022/11/10 04:58:50;;;;;;;7.35;4.32;;;;;;;11.36;100.00;100872.00;4994003;28;20092;-64
2022/11/10 05:01:19;;;;;;;10.25;5.20;;;;;;;11.32;100.00;100865.84;4992913;28;20057;-64
2022/11/10 05:03:45;;;;;;;9.75;4.85;;;;;;;11.29;100.00;100867.69;4998585;28;20026;-65
2022/11/10 05:06:11;;;;;;;11.98;5.32;;;;;;;11.26;100.00;100870.44;4994021;28;20044;-63
2022/11/10 05:08:38;;;;;;;9.98;5.25;;;;;;;11.28;100.00;100871.28;4993804;28;20180;-64
2022/11/10 05:11:03;;;;;;;8.40;5.03;;;;;;;11.28;100.00;100876.59;4993413;28;20056;-64
2022/11/10 05:13:29;;;;;;;10.68;4.90;;;;;;;11.25;100.00;100879.34;4993716;28;20034;-64
2022/11/10 05:15:55;;;;;;;7.45;4.80;;;;;;;11.21;100.00;100882.97;4993594;28;20034;-64
2022/11/10 05:18:20;;;;;;;8.07;5.40;;;;;;;11.16;100.00;100884.84;4993248;28;20109;-64
2022/11/10 05:20:46;;;;;;;8.63;5.43;;;;;;;11.16;100.00;100892.84;4993347;28;20106;-65
2022/11/10 05:25:55;;;;;;;4.93;2.67;;;;;;;11.02;100.00;100892.25;4993756;28;20033;-64
2022/11/10 05:28:20;;;;;;;5.68;3.00;;;;;;;10.91;100.00;100892.47;4993555;28;20038;-64
2022/11/10 05:30:46;;;;;;;6.20;3.00;;;;;;;10.84;100.00;100895.28;4993150;28;20500;-64
2022/11/10 05:33:12;;;;;;;9.98;4.03;;;;;;;10.84;100.00;100895.28;4993279;28;20052;-65
2022/11/10 05:35:38;;;;;;;5.45;3.00;;;;;;;10.80;100.00;100897.13;4993217;28;20026;-64
2022/11/10 05:38:04;;;;;;;8.70;4.22;;;;;;;10.73;100.00;100897.25;4993041;28;20116;-64
2022/11/10 05:40:29;;;;;;;8.45;4.18;;;;;;;10.69;100.00;100900.91;4992879;28;20552;-64
2022/11/10 05:42:55;;;;;;;7.88;3.85;;;;;;;10.62;100.00;100906.31;4993440;28;20031;-64
2022/11/10 05:45:22;;;;;;;7.72;3.40;;;;;;;10.54;100.00;100902.94;4992774;28;20033;-64
2022/11/10 05:47:48;;;;;;;7.60;4.00;;;;;;;10.53;100.00;100909.16;4997361;28;20032;-64
2022/11/10 05:50:14;;;;;;;5.60;3.60;;;;;;;10.55;100.00;100915.34;5012207;28;20129;-65
2022/11/10 05:52:43;;;;;;;9.48;4.88;;;;;;;10.53;100.00;100922.47;5008747;28;20436;-64
2022/11/10 05:55:09;;;;;;;9.68;5.20;;;;;;;10.53;100.00;100927.78;5011864;28;20108;-64
2022/11/10 05:57:34;;;;;;;8.75;4.63;;;;;;;10.53;100.00;100930.44;5011741;28;20068;-64
2022/11/10 06:00:00;;;;;;;11.45;5.13;;;;;;;10.50;100.00;100932.28;5011303;28;20478;-64
2022/11/10 06:02:25;;;;;;;8.10;4.78;;;;;;;10.46;100.00;100933.25;5011661;28;20112;-64
2022/11/10 06:04:50;;;;;;;7.75;4.72;;;;;;;10.40;100.00;100931.56;4994004;28;20142;-63
2022/11/10 06:07:16;;;;;;;7.03;4.28;;;;;;;10.37;100.00;100936.94;4992706;28;20386;-64
2022/11/10 06:09:41;;;;;;;11.27;3.92;;;;;;;10.34;100.00;100942.31;4992331;28;20054;-64
2022/11/10 06:12:07;;;;;;;8.43;4.13;;;;;;;10.31;100.00;100944.16;4992094;28;20513;-61
2022/11/10 06:14:32;;;;;;;11.38;4.63;;;;;;;10.29;100.00;100948.63;4991089;28;20125;-63
2022/11/10 06:16:57;;;;;;;13.55;4.88;;;;;;;10.27;100.00;100951.31;4991521;28;20033;-63
2022/11/10 06:19:23;;;;;;;9.70;5.18;;;;;;;10.27;100.00;100961.94;4991925;28;20033;-62
2022/11/10 06:21:48;;;;;;;9.65;5.28;;;;;;;10.31;100.00;100968.94;4991658;28;20478;-62
2022/11/10 06:24:14;;;;;;;10.90;6.15;;;;;;;10.32;100.00;100976.03;4991776;28;20027;-64
2022/11/10 06:26:39;;;;;;;11.18;5.88;;;;;;;10.32;100.00;100980.47;4991361;28;20512;-63
2022/11/10 06:29:04;;;;;;;9.30;5.15;;;;;;;10.29;100.00;100986.72;4990690;28;20026;-64
2022/11/10 06:31:30;;;;;;;13.75;3.88;;;;;;;10.27;100.00;101003.59;4989803;28;20038;-63
2022/11/10 06:33:55;;;;;;;13.35;2.70;;;;;;;10.20;100.00;101002.81;4992167;28;20030;-63
2022/11/10 06:36:21;;;;;;;17.77;6.07;;;;;;;10.20;100.00;101013.44;4991948;28;20026;-63
2022/11/10 06:38:46;;;;;;;84.03;32.97;;;;;;;10.25;100.00;101019.56;4992075;28;20030;-63
2022/11/10 06:41:12;;;;;;;96.65;40.55;;;;;;;10.31;100.00;101024.78;4992174;28;20034;-63
2022/11/10 06:43:37;;;;;;;69.00;26.10;;;;;;;10.39;100.00;101030.00;4991780;28;20057;-63
2022/11/10 06:46:03;;;;;;;65.20;27.20;;;;;;;10.41;100.00;101030.88;4991663;28;20030;-63
2022/11/10 06:48:28;;;;;;;30.05;13.77;;;;;;;10.44;100.00;101028.16;4991777;28;20022;-62
2022/11/10 06:50:54;;;;;;;16.35;7.28;;;;;;;10.55;100.00;101036.81;4991917;28;20084;-63
2022/11/10 06:53:19;;;;;;;23.75;12.05;;;;;;;10.63;100.00;101024.28;4991869;28;20115;-63
2022/11/10 06:55:45;;;;;;;19.90;10.07;;;;;;;10.72;100.00;101039.22;4991561;28;20034;-63
2022/11/10 06:58:10;;;;;;;15.77;8.90;;;;;;;10.80;100.00;101039.94;4990796;28;20022;-62
2022/11/10 07:00:36;;;;;;;15.82;8.50;;;;;;;10.90;100.00;101039.78;4991441;28;20062;-63
2022/11/10 07:03:04;;;;;;;12.45;7.32;;;;;;;11.01;100.00;101060.88;4991709;28;20034;-63
2022/11/10 07:05:35;;;;;;;14.00;7.63;;;;;;;11.10;100.00;101074.03;4993770;28;20030;-64
2022/11/10 07:08:05;;;;;;;14.20;8.77;;;;;;;11.13;100.00;101071.31;4983803;28;20065;-63
2022/11/10 07:10:32;;;;;;;17.60;10.93;;;;;;;11.15;100.00;101066.84;4990645;28;20066;-64
2022/11/10 07:12:58;;;;;;;14.77;7.95;;;;;;;11.23;100.00;101075.56;4990886;28;20102;-63
2022/11/10 07:15:23;;;;;;;13.95;7.10;;;;;;;11.36;100.00;101082.41;4988406;28;20026;-63
2022/11/10 07:17:49;;;;;;;13.15;8.27;;;;;;;11.63;100.00;101081.91;4987883;28;20041;-63
2022/11/10 07:20:14;;;;;;;15.68;9.18;;;;;;;12.06;100.00;101092.59;4990090;28;20049;-63
2022/11/10 07:22:40;;;;;;;17.88;11.75;;;;;;;12.50;100.00;101095.13;4990694;28;20386;-62
2022/11/10 07:25:06;;;;;;;16.40;9.80;;;;;;;13.05;100.00;101104.47;4988717;28;20061;-63
2022/11/10 07:27:31;;;;;;;18.70;10.95;;;;;;;13.90;100.00;101107.50;4991193;28;20026;-62
2022/11/10 07:29:57;;;;;;;15.85;9.05;;;;;;;14.88;100.00;101110.69;4991319;28;20034;-62
2022/11/10 07:32:22;;;;;;;14.70;8.38;;;;;;;15.73;100.00;101114.88;4990473;28;20049;-63
2022/11/10 07:34:48;;;;;;;11.55;7.50;;;;;;;16.42;100.00;101123.91;4991610;28;20068;-63
2022/11/10 07:37:13;;;;;;;15.82;11.18;;;;;;;17.52;100.00;101125.63;4987256;28;20049;-63
2022/11/10 07:39:42;;;;;;;12.73;7.35;;;;;;;18.68;97.27;101127.50;4985736;28;20058;-63
2022/11/10 07:42:07;;;;;;;10.73;6.50;;;;;;;19.74;85.52;101123.84;4985287;28;20041;-63
2022/11/10 07:44:32;;;;;;;8.50;5.55;;;;;;;20.75;74.94;101129.97;4986305;28;20030;-63
2022/11/10 07:46:58;;;;;;;9.23;4.93;;;;;;;21.43;67.35;101125.13;4986656;28;20841;-64
2022/11/10 07:49:24;;;;;;;8.52;4.72;;;;;;;21.64;60.43;101124.72;4984958;28;20030;-63
2022/11/10 07:51:49;;;;;;;7.53;4.55;;;;;;;21.36;57.65;101137.28;4987939;28;20109;-64
2022/11/10 07:54:15;;;;;;;7.88;4.50;;;;;;;20.95;58.87;101134.25;4991237;28;20037;-64
2022/11/10 07:56:41;;;;;;;9.65;4.65;;;;;;;21.30;59.22;101145.75;4986969;28;20125;-64
2022/11/10 07:59:07;;;;;;;8.40;4.40;;;;;;;21.35;58.85;101149.91;4987539;28;20030;-63
2022/11/10 08:01:33;;;;;;;8.93;4.75;;;;;;;20.26;60.86;101149.84;4987462;28;20121;-64
2022/11/10 08:03:58;;;;;;;8.43;5.10;;;;;;;18.48;66.86;101151.81;4990176;28;20034;-64
2022/11/10 08:06:24;;;;;;;9.55;5.47;;;;;;;17.09;73.00;101152.56;4991105;28;20591;-63
2022/11/10 08:08:50;;;;;;;10.27;5.95;;;;;;;16.10;78.93;101161.81;4990385;28;20368;-63
2022/11/10 08:11:15;;;;;;;13.10;7.25;;;;;;;15.34;84.98;101164.50;4990035;28;20037;-63
2022/11/10 08:13:40;;;;;;;12.52;7.60;;;;;;;14.46;92.09;101173.63;4988741;28;20429;-63
2022/11/10 08:16:06;;;;;;;12.73;6.38;;;;;;;13.89;97.78;101177.94;4990042;28;20053;-63
2022/11/10 08:18:31;;;;;;;12.55;6.93;;;;;;;13.49;100.00;101171.91;4992401;28;20034;-63
2022/11/10 08:21:00;;;;;;;14.18;6.07;;;;;;;13.31;100.00;101173.25;4991254;28;20030;-63
2022/11/10 08:23:27;;;;;;;13.43;7.43;;;;;;;13.09;100.00;101172.94;4988289;28;20377;-63
2022/11/10 08:25:53;;;;;;;14.00;7.63;;;;;;;13.15;100.00;101179.91;4992562;28;20105;-63
2022/11/10 08:28:19;;;;;;;20.10;8.88;;;;;;;13.16;100.00;101174.50;4992406;28;20109;-64
2022/11/10 08:30:46;;;;;;;22.45;11.15;;;;;;;13.23;100.00;101186.81;4989882;28;20358;-62
2022/11/10 08:33:14;;;;;;;21.23;10.85;;;;;;;13.29;100.00;101201.81;5004598;28;20041;-63
2022/11/10 08:35:42;;;;;;;17.75;9.02;;;;;;;13.17;100.00;101197.66;4991709;28;20074;-63
2022/11/10 08:38:09;;;;;;;14.38;8.88;;;;;;;13.27;100.00;101202.75;4987276;28;20378;-63
2022/11/10 08:40:35;;;;;;;17.23;9.25;;;;;;;13.22;100.00;101210.91;4987880;28;20065;-63
2022/11/10 08:43:01;;;;;;;18.73;9.18;;;;;;;13.19;100.00;101211.84;4990009;28;20038;-63
2022/11/10 08:45:27;;;;;;;15.70;8.18;;;;;;;13.14;100.00;101208.44;4990799;28;20026;-64
2022/11/10 08:48:00;;;;;;;13.80;8.13;;;;;;;13.27;100.00;101208.09;4990259;28;20042;-64
2022/11/10 08:50:26;;;;;;;16.37;7.17;;;;;;;13.34;100.00;101212.38;4988622;28;20034;-63
2022/11/10 08:52:52;;;;;;;19.20;8.02;;;;;;;13.35;100.00;101216.81;4988186;28;20034;-64
2022/11/10 08:55:19;;;;;;;18.45;10.48;;;;;;;13.53;100.00;101219.03;4990681;28;20375;-64
2022/11/10 08:57:45;;;;;;;15.65;7.55;;;;;;;13.52;100.00;101215.50;4987069;28;20061;-64
2022/11/10 09:00:12;;;;;;;16.00;8.25;;;;;;;13.68;100.00;101223.97;4989777;28;20022;-64
2022/11/10 09:02:38;;;;;;;18.92;9.93;;;;;;;13.85;100.00;101227.09;4988200;28;20022;-64
2022/11/10 09:05:03;;;;;;;14.77;8.00;;;;;;;13.89;100.00;101234.09;4988789;28;20022;-63
2022/11/10 09:07:30;;;;;;;14.05;7.50;;;;;;;13.69;100.00;101226.59;4990657;28;20564;-63
2022/11/10 09:09:55;;;;;;;17.42;9.40;;;;;;;13.64;100.00;101233.00;4986193;28;20471;-63
2022/11/10 09:12:21;;;;;;;13.65;7.97;;;;;;;13.62;100.00;101233.06;4990023;28;20037;-63
2022/11/10 09:14:46;;;;;;;13.48;8.52;;;;;;;13.91;100.00;101245.63;5005915;28;20026;-63
2022/11/10 09:17:12;;;;;;;14.13;6.78;;;;;;;14.25;100.00;101241.16;4987252;28;20528;-63
2022/11/10 09:19:37;;;;;;;15.02;8.95;;;;;;;15.27;100.00;101239.84;4987370;28;20826;-63
2022/11/10 09:22:03;;;;;;;15.13;8.38;;;;;;;16.10;100.00;101237.00;4987602;28;20030;-63
2022/11/10 09:24:29;;;;;;;17.83;9.57;;;;;;;17.07;99.58;101251.22;4987859;28;20026;-63
2022/11/10 09:26:54;;;;;;;14.38;8.50;;;;;;;17.83;91.66;101249.84;4985984;28;20034;-64
2022/11/10 09:29:21;;;;;;;19.85;10.95;;;;;;;18.20;86.89;101250.00;4987531;28;20022;-63
2022/11/10 09:31:46;;;;;;;10.73;6.32;;;;;;;18.30;82.45;101247.78;4987860;28;20049;-64
2022/11/10 09:34:12;;;;;;;13.07;6.63;;;;;;;18.90;80.66;101263.00;4985859;28;20038;-64
2022/11/10 09:36:39;;;;;;;9.43;5.82;;;;;;;19.66;75.09;101255.66;4984836;28;20045;-64
2022/11/10 09:39:06;;;;;;;8.88;5.35;;;;;;;20.58;70.64;101264.34;4985645;28;20034;-64
2022/11/10 09:41:31;;;;;;;9.43;5.50;;;;;;;21.45;67.12;101258.56;4985608;28;20030;-64
2022/11/10 09:44:04;;;;;;;8.05;4.75;;;;;;;22.28;62.20;101259.88;4985562;28;20051;-64
2022/11/10 09:46:35;;;;;;;8.05;4.85;;;;;;;22.28;59.91;101268.00;4985106;28;20068;-64
2022/11/10 09:49:29;;;;;;;8.45;4.68;;;;;;;22.20;59.10;101273.03;4985874;28;20236;-64
2022/11/10 09:51:58;;;;;;;9.07;4.50;;;;;;;22.45;58.98;101278.72;4985572;28;20085;-64
2022/11/10 09:54:23;;;;;;;5.78;3.60;;;;;;;22.30;59.36;101276.06;4984792;28;20069;-64
2022/11/10 09:56:52;;;;;;;7.07;4.13;;;;;;;22.21;57.72;101287.47;4986047;28;20034;-64
2022/11/10 09:59:25;;;;;;;7.55;4.15;;;;;;;22.56;57.91;101289.78;4984409;28;20034;-64
2022/11/10 10:01:59;;;;;;;5.97;3.10;;;;;;;22.71;57.63;101283.44;4985857;28;20109;-64
2022/11/10 10:04:39;;;;;;;4.90;2.67;;;;;;;22.98;56.68;101292.53;4988514;28;20804;-64
2022/11/10 10:07:09;;;;;;;5.47;2.85;;;;;;;23.29;56.05;101286.91;4985016;28;20030;-64
2022/11/10 10:10:03;;;;;;;5.72;3.13;;;;;;;22.88;56.20;101295.94;4986033;28;20054;-64
2022/11/10 10:12:53;;;;;;;5.22;2.78;;;;;;;22.55;56.15;101292.59;5000265;28;20125;-66
2022/11/10 10:15:26;;;;;;;5.50;2.90;;;;;;;22.76;57.68;101286.72;4986504;28;20033;-63
2022/11/10 10:18:02;;;;;;;12.20;3.30;;;;;;;23.32;56.30;101286.72;4985931;28;20080;-64
2022/11/10 10:20:47;;;;;;;5.68;3.25;;;;;;;23.44;56.06;101290.50;4985909;28;20442;-64
2022/11/10 10:23:27;;;;;;;8.88;3.30;;;;;;;23.40;55.78;101292.53;4986986;28;20482;-64
2022/11/10 10:25:53;;;;;;;6.70;3.33;;;;;;;23.53;56.61;101283.56;4985735;28;20057;-65
2022/11/10 10:28:27;;;;;;;6.60;3.45;;;;;;;23.85;55.62;101285.91;4986164;28;20050;-64
2022/11/10 10:31:00;;;;;;;4.68;2.90;;;;;;;23.71;53.69;101282.34;4985344;28;20022;-64
2022/11/10 10:33:27;;;;;;;7.10;4.13;;;;;;;23.12;54.31;101287.09;4985470;28;20045;-64
2022/11/10 10:35:52;;;;;;;9.25;4.53;;;;;;;22.82;57.06;101280.91;4987063;28;20439;-64
2022/11/10 10:38:31;;;;;;;8.30;3.50;;;;;;;23.14;57.38;101276.16;4985402;28;20045;-63
2022/11/10 10:41:02;;;;;;;6.80;3.13;;;;;;;23.35;54.99;101275.66;4985000;28;20133;-64
2022/11/10 10:43:28;;;;;;;6.47;2.95;;;;;;;23.27;55.14;101280.72;4985595;28;20056;-64
2022/11/10 10:46:09;;;;;;;7.05;3.55;;;;;;;22.97;55.18;101288.06;4985190;28;20053;-65
2022/11/10 10:48:35;;;;;;;6.63;3.53;;;;;;;22.84;57.20;101284.41;4985996;28;20032;-64
2022/11/10 10:51:00;;;;;;;7.90;3.28;;;;;;;22.85;55.51;101277.13;4983952;28;20030;-64
2022/11/10 10:53:26;;;;;;;7.97;4.45;;;;;;;22.72;56.91;101287.88;4983276;28;20117;-64
2022/11/10 10:55:58;;;;;;;6.38;3.53;;;;;;;22.96;55.29;101286.34;4986194;28;20058;-64
2022/11/10 10:58:33;;;;;;;5.77;3.43;;;;;;;23.02;53.89;101290.50;4984347;28;20546;-64
2022/11/10 11:01:18;;;;;;;6.03;3.25;;;;;;;23.15;54.87;101289.63;4985112;28;20648;-64
2022/11/10 11:03:48;;;;;;;6.93;3.28;;;;;;;23.11;53.18;101293.47;4985157;28;20084;-64
2022/11/10 11:06:14;;;;;;;4.93;2.90;;;;;;;23.43;55.93;101277.84;4985884;28;20030;-64
2022/11/10 11:08:56;;;;;;;5.72;3.17;;;;;;;23.42;55.95;101282.44;4984493;28;20551;-64
2022/11/10 11:11:42;;;;;;;5.22;2.95;;;;;;;23.42;55.84;101293.31;4984024;28;20069;-65
2022/11/10 11:14:26;;;;;;;8.27;3.45;;;;;;;23.74;54.02;101293.03;4984484;28;20470;-63
2022/11/10 11:16:52;;;;;;;6.22;3.08;;;;;;;23.96;53.37;101290.59;4983931;28;20038;-64
2022/11/10 11:19:21;;;;;;;6.00;3.20;;;;;;;23.91;53.11;101290.03;4983038;28;20550;-64
2022/11/10 11:22:14;;;;;;;7.53;2.83;;;;;;;24.06;52.91;101283.59;4984068;28;20531;-64
2022/11/10 11:24:57;;;;;;;7.90;3.10;;;;;;;23.15;53.00;101273.31;4983589;28;20034;-65
2022/11/10 11:27:22;;;;;;;11.18;4.47;;;;;;;23.09;54.56;101265.59;4984793;28;20081;-64
2022/11/10 11:29:56;;;;;;;6.03;3.45;;;;;;;23.14;54.21;101266.16;4984145;28;20045;-64
2022/11/10 11:32:46;;;;;;;5.88;3.60;;;;;;;23.13;54.28;101263.56;4983660;28;20475;-64